sensor_id;sensor_type;location;lat;lon;timestamp;pressure;altitude;pressure_sealevel;temperature;humidity
20624;BME280;10471;42.736;23.346;2022-10-22T00:00:49;96432.75;;;6.16;100.00
20624;BME280;10471;42.736;23.346;2022-10-22T00:03:15;96434.81;;;6.14;100.00
20624;BME280;10471;42.736;23.346;2022-10-22T00:05:40;96433.19;;;6.13;100.00
20624;BME280;10471;42.736;23.346;2022-10-22T00:08:06;96430.44;;;6.08;100.00
20624;BME280;10471;42.736;23.346;2022-10-22T00:10:32;96436.09;;;6.05;100.00
20624;BME280;10471;42.736;23.346;2022-10-22T00:12:57;96431.91;;;6.04;100.00
20624;BME280;10471;42.736;23.346;2022-10-22T00:15:22;96424.84;;;6.04;100.00
20624;BME280;10471;42.736;23.346;2022-10-22T00:17:48;96434.06;;;6.07;100.00
20624;BME280;10471;42.736;23.346;2022-10-22T00:20:14;96433.06;;;6.08;100.00
20624;BME280;10471;42.736;23.346;2022-10-22T00:22:40;96437.72;;;6.06;100.00
20624;BME280;10471;42.736;23.346;2022-10-22T00:25:05;96424.84;;;6.04;100.00
20624;BME280;10471;42.736;23.346;2022-10-22T00:27:31;96417.00;;;6.04;100.00
20624;BME280;10471;42.736;23.346;2022-10-22T00:29:56;96412.22;;;6.01;100.00
20624;BME280;10471;42.736;23.346;2022-10-22T00:32:21;96412.38;;;6.06;100.00
20624;BME280;10471;42.736;23.346;2022-10-22T00:34:47;96414.16;;;6.06;100.00
20624;BME280;10471;42.736;23.346;2022-10-22T00:37:12;96408.78;;;6.01;100.00
20624;BME280;10471;42.736;23.346;2022-10-22T00:39:37;96407.19;;;6.00;100.00
20624;BME280;10471;42.736;23.346;2022-10-22T00:42:03;96406.13;;;5.89;100.00
20624;BME280;10471;42.736;23.346;2022-10-22T00:45:48;96408.53;;;5.91;100.00
20624;BME280;10471;42.736;23.346;2022-10-22T00:47:48;96418.72;;;5.81;100.00
20624;BME280;10471;42.736;23.346;2022-10-22T00:50:19;96413.47;;;5.81;100.00
20624;BME280;10471;42.736;23.346;2022-10-22T00:52:46;96413.94;;;5.78;100.00
20624;BME280;10471;42.736;23.346;2022-10-22T00:55:12;96415.72;;;5.78;100.00
20624;BME280;10471;42.736;23.346;2022-10-22T00:57:38;96408.69;;;5.78;100.00
20624;BME280;10471;42.736;23.346;2022-10-22T01:00:05;96397.78;;;5.81;100.00
20624;BME280;10471;42.736;23.346;2022-10-22T01:02:31;96401.00;;;5.83;100.00
20624;BME280;10471;42.736;23.346;2022-10-22T01:04:57;96393.72;;;5.85;100.00
20624;BME280;10471;42.736;23.346;2022-10-22T01:07:23;96388.06;;;5.88;100.00
20624;BME280;10471;42.736;23.346;2022-10-22T01:20:48;96385.31;;;5.83;100.00
20624;BME280;10471;42.736;23.346;2022-10-22T01:23:43;96382.09;;;5.81;100.00
20624;BME280;10471;42.736;23.346;2022-10-22T01:29:16;96371.34;;;5.71;100.00
20624;BME280;10471;42.736;23.346;2022-10-22T01:31:51;96360.88;;;5.71;100.00
20624;BME280;10471;42.736;23.346;2022-10-22T01:34:18;96366.53;;;5.68;100.00
20624;BME280;10471;42.736;23.346;2022-10-22T01:36:45;96363.34;;;5.66;100.00
20624;BME280;10471;42.736;23.346;2022-10-22T01:39:13;96353.91;;;5.65;100.00
20624;BME280;10471;42.736;23.346;2022-10-22T01:41:42;96362.22;;;5.62;100.00
20624;BME280;10471;42.736;23.346;2022-10-22T01:44:33;96361.63;;;5.60;100.00
20624;BME280;10471;42.736;23.346;2022-10-22T01:49:40;96361.03;;;5.58;100.00
20624;BME280;10471;42.736;23.346;2022-10-22T01:52:20;96362.06;;;5.57;100.00
20624;BME280;10471;42.736;23.346;2022-10-22T01:54:54;96355.09;;;5.51;100.00
20624;BME280;10471;42.736;23.346;2022-10-22T02:00:16;96364.38;;;5.47;100.00
20624;BME280;10471;42.736;23.346;2022-10-22T02:05:19;96365.41;;;5.46;100.00
20624;BME280;10471;42.736;23.346;2022-10-22T02:08:10;96361.41;;;5.44;100.00
20624;BME280;10471;42.736;23.346;2022-10-22T02:10:39;96358.00;;;5.43;100.00
20624;BME280;10471;42.736;23.346;2022-10-22T02:13:09;96356.25;;;5.37;100.00
20624;BME280;10471;42.736;23.346;2022-10-22T02:15:37;96356.09;;;5.32;100.00
20624;BME280;10471;42.736;23.346;2022-10-22T02:18:05;96348.34;;;5.26;100.00
20624;BME280;10471;42.736;23.346;2022-10-22T02:20:32;96349.81;;;5.22;100.00
20624;BME280;10471;42.736;23.346;2022-10-22T02:23:00;96346.59;;;5.20;100.00
20624;BME280;10471;42.736;23.346;2022-10-22T02:25:29;96354.50;;;5.14;100.00
20624;BME280;10471;42.736;23.346;2022-10-22T02:30:35;96355.16;;;5.09;100.00
20624;BME280;10471;42.736;23.346;2022-10-22T02:33:10;96362.19;;;5.09;100.00
20624;BME280;10471;42.736;23.346;2022-10-22T02:35:39;96360.00;;;5.06;100.00
20624;BME280;10471;42.736;23.346;2022-10-22T02:38:06;96350.00;;;5.03;100.00
20624;BME280;10471;42.736;23.346;2022-10-22T02:40:32;96360.69;;;5.01;100.00
20624;BME280;10471;42.736;23.346;2022-10-22T02:42:58;96368.44;;;5.08;100.00
20624;BME280;10471;42.736;23.346;2022-10-22T02:45:23;96369.41;;;5.13;100.00
20624;BME280;10471;42.736;23.346;2022-10-22T02:47:49;96371.28;;;5.06;100.00
20624;BME280;10471;42.736;23.346;2022-10-22T02:50:14;96367.28;;;5.04;100.00
20624;BME280;10471;42.736;23.346;2022-10-22T02:52:40;96371.66;;;5.10;100.00
20624;BME280;10471;42.736;23.346;2022-10-22T02:55:06;96373.03;;;5.12;100.00
20624;BME280;10471;42.736;23.346;2022-10-22T02:57:32;96364.97;;;5.14;100.00
20624;BME280;10471;42.736;23.346;2022-10-22T02:59:57;96366.78;;;5.13;100.00
20624;BME280;10471;42.736;23.346;2022-10-22T03:02:22;96364.38;;;5.12;100.00
20624;BME280;10471;42.736;23.346;2022-10-22T03:04:48;96375.84;;;5.11;100.00
20624;BME280;10471;42.736;23.346;2022-10-22T03:07:13;96370.81;;;5.09;100.00
20624;BME280;10471;42.736;23.346;2022-10-22T03:09:39;96370.44;;;5.06;100.00
20624;BME280;10471;42.736;23.346;2022-10-22T03:12:04;96370.91;;;5.03;100.00
20624;BME280;10471;42.736;23.346;2022-10-22T03:14:30;96374.38;;;4.97;100.00
20624;BME280;10471;42.736;23.346;2022-10-22T03:16:55;96360.94;;;4.93;100.00
20624;BME280;10471;42.736;23.346;2022-10-22T03:19:20;96360.22;;;4.86;100.00
20624;BME280;10471;42.736;23.346;2022-10-22T03:21:55;96359.84;;;4.83;100.00
20624;BME280;10471;42.736;23.346;2022-10-22T03:24:26;96355.03;;;4.80;100.00
20624;BME280;10471;42.736;23.346;2022-10-22T03:26:53;96363.31;;;4.77;100.00
20624;BME280;10471;42.736;23.346;2022-10-22T03:29:21;96366.38;;;4.74;100.00
20624;BME280;10471;42.736;23.346;2022-10-22T03:31:47;96372.59;;;4.73;100.00
20624;BME280;10471;42.736;23.346;2022-10-22T03:34:13;96364.59;;;4.68;100.00
20624;BME280;10471;42.736;23.346;2022-10-22T03:36:39;96359.59;;;4.66;100.00
20624;BME280;10471;42.736;23.346;2022-10-22T03:39:05;96358.78;;;4.66;100.00
20624;BME280;10471;42.736;23.346;2022-10-22T03:41:31;96355.63;;;4.64;100.00
20624;BME280;10471;42.736;23.346;2022-10-22T03:43:59;96360.84;;;4.64;100.00
20624;BME280;10471;42.736;23.346;2022-10-22T03:46:25;96368.06;;;4.62;100.00
20624;BME280;10471;42.736;23.346;2022-10-22T03:48:50;96364.63;;;4.61;100.00
20624;BME280;10471;42.736;23.346;2022-10-22T03:51:15;96364.84;;;4.60;100.00
20624;BME280;10471;42.736;23.346;2022-10-22T03:53:41;96367.25;;;4.61;100.00
20624;BME280;10471;42.736;23.346;2022-10-22T03:56:10;96366.47;;;4.61;100.00
20624;BME280;10471;42.736;23.346;2022-10-22T03:58:37;96353.63;;;4.59;100.00
20624;BME280;10471;42.736;23.346;2022-10-22T04:01:10;96348.03;;;4.56;100.00
20624;BME280;10471;42.736;23.346;2022-10-22T04:03:36;96346.03;;;4.58;100.00
20624;BME280;10471;42.736;23.346;2022-10-22T04:06:07;96347.59;;;4.59;100.00
20624;BME280;10471;42.736;23.346;2022-10-22T04:08:34;96346.03;;;4.58;100.00
20624;BME280;10471;42.736;23.346;2022-10-22T04:11:00;96342.38;;;4.59;100.00
20624;BME280;10471;42.736;23.346;2022-10-22T04:13:25;96352.81;;;4.59;100.00
20624;BME280;10471;42.736;23.346;2022-10-22T04:15:51;96347.97;;;4.62;100.00
20624;BME280;10471;42.736;23.346;2022-10-22T04:18:17;96340.97;;;4.63;100.00
20624;BME280;10471;42.736;23.346;2022-10-22T04:20:43;96351.97;;;4.65;100.00
20624;BME280;10471;42.736;23.346;2022-10-22T04:23:09;96347.97;;;4.62;100.00
20624;BME280;10471;42.736;23.346;2022-10-22T04:25:34;96342.34;;;4.65;100.00
20624;BME280;10471;42.736;23.346;2022-10-22T04:27:59;96341.91;;;4.68;100.00
20624;BME280;10471;42.736;23.346;2022-10-22T04:30:25;96347.50;;;4.72;100.00
20624;BME280;10471;42.736;23.346;2022-10-22T04:32:50;96340.25;;;4.74;100.00
20624;BME280;10471;42.736;23.346;2022-10-22T04:35:15;96347.66;;;4.77;100.00
20624;BME280;10471;42.736;23.346;2022-10-22T04:37:41;96349.03;;;4.79;100.00
20624;BME280;10471;42.736;23.346;2022-10-22T04:40:06;96347.81;;;4.82;100.00
20624;BME280;10471;42.736;23.346;2022-10-22T04:42:32;96343.75;;;4.86;100.00
20624;BME280;10471;42.736;23.346;2022-10-22T04:44:57;96337.09;;;4.90;100.00
20624;BME280;10471;42.736;23.346;2022-10-22T04:47:23;96341.09;;;4.92;100.00
20624;BME280;10471;42.736;23.346;2022-10-22T04:49:48;96340.41;;;4.97;100.00
20624;BME280;10471;42.736;23.346;2022-10-22T04:52:14;96353.06;;;5.00;100.00
20624;BME280;10471;42.736;23.346;2022-10-22T04:54:39;96357.84;;;5.03;100.00
20624;BME280;10471;42.736;23.346;2022-10-22T04:57:04;96358.28;;;5.00;100.00
20624;BME280;10471;42.736;23.346;2022-10-22T04:59:30;96360.91;;;5.00;100.00
20624;BME280;10471;42.736;23.346;2022-10-22T05:01:55;96359.59;;;5.09;100.00
20624;BME280;10471;42.736;23.346;2022-10-22T05:04:20;96359.16;;;5.12;100.00
20624;BME280;10471;42.736;23.346;2022-10-22T05:06:46;96370.34;;;5.18;100.00
20624;BME280;10471;42.736;23.346;2022-10-22T05:09:14;96378.75;;;5.20;100.00
20624;BME280;10471;42.736;23.346;2022-10-22T05:11:41;96388.41;;;5.20;100.00
20624;BME280;10471;42.736;23.346;2022-10-22T05:14:10;96375.13;;;5.21;100.00
20624;BME280;10471;42.736;23.346;2022-10-22T05:16:36;96380.34;;;5.21;100.00
20624;BME280;10471;42.736;23.346;2022-10-22T05:19:02;96384.00;;;5.20;100.00
20624;BME280;10471;42.736;23.346;2022-10-22T05:21:28;96367.13;;;5.17;100.00
20624;BME280;10471;42.736;23.346;2022-10-22T05:23:54;96380.78;;;5.18;100.00
20624;BME280;10471;42.736;23.346;2022-10-22T05:26:21;96378.75;;;5.20;100.00
20624;BME280;10471;42.736;23.346;2022-10-22T05:28:48;96370.25;;;5.25;100.00
20624;BME280;10471;42.736;23.346;2022-10-22T05:31:15;96379.34;;;5.22;100.00
20624;BME280;10471;42.736;23.346;2022-10-22T05:33:41;96390.94;;;5.26;100.00
20624;BME280;10471;42.736;23.346;2022-10-22T05:36:08;96384.94;;;5.26;100.00
20624;BME280;10471;42.736;23.346;2022-10-22T05:38:34;96380.66;;;5.31;100.00
20624;BME280;10471;42.736;23.346;2022-10-22T05:41:08;96383.06;;;5.33;100.00
20624;BME280;10471;42.736;23.346;2022-10-22T05:43:34;96383.28;;;5.31;100.00
20624;BME280;10471;42.736;23.346;2022-10-22T05:46:10;96390.22;;;5.37;100.00
20624;BME280;10471;42.736;23.346;2022-10-22T05:48:37;96389.81;;;5.40;100.00
20624;BME280;10471;42.736;23.346;2022-10-22T05:51:08;96388.84;;;5.35;100.00
20624;BME280;10471;42.736;23.346;2022-10-22T05:53:36;96394.16;;;5.46;100.00
20624;BME280;10471;42.736;23.346;2022-10-22T05:56:04;96378.03;;;5.49;100.00
20624;BME280;10471;42.736;23.346;2022-10-22T05:58:30;96389.00;;;5.58;100.00
20624;BME280;10471;42.736;23.346;2022-10-22T06:01:16;96388.34;;;5.62;100.00
20624;BME280;10471;42.736;23.346;2022-10-22T06:03:43;96390.06;;;5.68;100.00
20624;BME280;10471;42.736;23.346;2022-10-22T06:06:20;96373.59;;;5.68;100.00
20624;BME280;10471;42.736;23.346;2022-10-22T06:08:47;96392.56;;;5.81;100.00
20624;BME280;10471;42.736;23.346;2022-10-22T06:11:14;96395.53;;;5.85;100.00
20624;BME280;10471;42.736;23.346;2022-10-22T06:13:42;96388.31;;;5.98;100.00
20624;BME280;10471;42.736;23.346;2022-10-22T06:16:07;96393.91;;;6.01;100.00
20624;BME280;10471;42.736;23.346;2022-10-22T06:18:33;96405.06;;;6.08;100.00
20624;BME280;10471;42.736;23.346;2022-10-22T06:21:12;96411.38;;;6.19;100.00
20624;BME280;10471;42.736;23.346;2022-10-22T06:23:39;96404.34;;;6.31;100.00
20624;BME280;10471;42.736;23.346;2022-10-22T06:26:06;96396.19;;;6.39;100.00
20624;BME280;10471;42.736;23.346;2022-10-22T06:28:32;96400.78;;;6.54;100.00
20624;BME280;10471;42.736;23.346;2022-10-22T06:30:59;96403.56;;;6.71;100.00
20624;BME280;10471;42.736;23.346;2022-10-22T06:33:25;96397.88;;;6.85;100.00
20624;BME280;10471;42.736;23.346;2022-10-22T06:35:51;96407.91;;;6.88;100.00
20624;BME280;10471;42.736;23.346;2022-10-22T06:38:16;96405.50;;;6.98;100.00
20624;BME280;10471;42.736;23.346;2022-10-22T06:40:42;96396.63;;;7.11;100.00
20624;BME280;10471;42.736;23.346;2022-10-22T06:43:10;96382.41;;;7.18;100.00
20624;BME280;10471;42.736;23.346;2022-10-22T06:45:36;96391.03;;;7.30;100.00
20624;BME280;10471;42.736;23.346;2022-10-22T06:48:02;96384.56;;;7.44;100.00
20624;BME280;10471;42.736;23.346;2022-10-22T06:50:27;96394.78;;;7.57;100.00
20624;BME280;10471;42.736;23.346;2022-10-22T06:52:53;96395.56;;;7.69;100.00
20624;BME280;10471;42.736;23.346;2022-10-22T06:55:18;96400.09;;;7.84;100.00
20624;BME280;10471;42.736;23.346;2022-10-22T06:57:43;96394.22;;;7.94;100.00
20624;BME280;10471;42.736;23.346;2022-10-22T07:00:09;96398.63;;;8.05;100.00
20624;BME280;10471;42.736;23.346;2022-10-22T07:02:35;96397.03;;;8.15;100.00
20624;BME280;10471;42.736;23.346;2022-10-22T07:05:00;96397.06;;;8.32;100.00
20624;BME280;10471;42.736;23.346;2022-10-22T07:07:25;96391.75;;;8.43;100.00
20624;BME280;10471;42.736;23.346;2022-10-22T07:09:51;96388.84;;;8.56;100.00
20624;BME280;10471;42.736;23.346;2022-10-22T07:12:16;96379.63;;;8.70;100.00
20624;BME280;10471;42.736;23.346;2022-10-22T07:14:42;96394.59;;;8.86;100.00
20624;BME280;10471;42.736;23.346;2022-10-22T07:17:07;96393.47;;;8.98;100.00
20624;BME280;10471;42.736;23.346;2022-10-22T07:19:33;96388.94;;;9.10;100.00
20624;BME280;10471;42.736;23.346;2022-10-22T07:21:58;96406.72;;;9.19;100.00
20624;BME280;10471;42.736;23.346;2022-10-22T07:24:24;96400.00;;;9.28;100.00
20624;BME280;10471;42.736;23.346;2022-10-22T07:26:49;96396.22;;;9.41;100.00
20624;BME280;10471;42.736;23.346;2022-10-22T07:29:15;96391.81;;;9.46;100.00
20624;BME280;10471;42.736;23.346;2022-10-22T07:31:41;96389.63;;;9.60;100.00
20624;BME280;10471;42.736;23.346;2022-10-22T07:34:07;96394.25;;;9.69;100.00
20624;BME280;10471;42.736;23.346;2022-10-22T07:36:32;96395.41;;;9.78;100.00
20624;BME280;10471;42.736;23.346;2022-10-22T07:38:59;96388.69;;;9.87;100.00
20624;BME280;10471;42.736;23.346;2022-10-22T07:41:26;96375.59;;;9.92;100.00
20624;BME280;10471;42.736;23.346;2022-10-22T07:43:52;96375.72;;;10.02;100.00
20624;BME280;10471;42.736;23.346;2022-10-22T07:46:18;96363.19;;;10.14;100.00
20624;BME280;10471;42.736;23.346;2022-10-22T07:48:44;96373.56;;;10.20;100.00
20624;BME280;10471;42.736;23.346;2022-10-22T07:51:09;96375.00;;;10.33;100.00
20624;BME280;10471;42.736;23.346;2022-10-22T07:53:35;96377.84;;;10.52;100.00
20624;BME280;10471;42.736;23.346;2022-10-22T07:56:01;96374.81;;;10.65;100.00
20624;BME280;10471;42.736;23.346;2022-10-22T07:58:26;96376.22;;;10.78;100.00
20624;BME280;10471;42.736;23.346;2022-10-22T08:00:54;96384.47;;;10.86;100.00
20624;BME280;10471;42.736;23.346;2022-10-22T08:03:20;96375.31;;;10.94;100.00
20624;BME280;10471;42.736;23.346;2022-10-22T08:05:46;96353.97;;;11.00;100.00
20624;BME280;10471;42.736;23.346;2022-10-22T08:08:12;96349.25;;;11.07;100.00
20624;BME280;10471;42.736;23.346;2022-10-22T08:10:38;96347.25;;;11.19;100.00
20624;BME280;10471;42.736;23.346;2022-10-22T08:13:04;96352.13;;;11.37;100.00
20624;BME280;10471;42.736;23.346;2022-10-22T08:15:30;96346.44;;;11.55;100.00
20624;BME280;10471;42.736;23.346;2022-10-22T08:17:55;96348.59;;;11.63;100.00
20624;BME280;10471;42.736;23.346;2022-10-22T08:20:21;96356.00;;;11.71;100.00
20624;BME280;10471;42.736;23.346;2022-10-22T08:22:46;96347.06;;;11.77;100.00
20624;BME280;10471;42.736;23.346;2022-10-22T08:25:12;96349.09;;;11.65;100.00
20624;BME280;10471;42.736;23.346;2022-10-22T08:27:37;96342.31;;;11.78;100.00
20624;BME280;10471;42.736;23.346;2022-10-22T08:30:04;96347.13;;;11.91;100.00
20624;BME280;10471;42.736;23.346;2022-10-22T08:32:30;96350.34;;;12.03;100.00
20624;BME280;10471;42.736;23.346;2022-10-22T08:34:55;96346.69;;;12.24;100.00
20624;BME280;10471;42.736;23.346;2022-10-22T08:37:21;96340.88;;;12.37;100.00
20624;BME280;10471;42.736;23.346;2022-10-22T08:39:46;96345.69;;;12.50;100.00
20624;BME280;10471;42.736;23.346;2022-10-22T08:42:41;96351.75;;;12.65;100.00
20624;BME280;10471;42.736;23.346;2022-10-22T08:45:12;96347.84;;;12.78;100.00
20624;BME280;10471;42.736;23.346;2022-10-22T08:48:05;96347.28;;;12.86;100.00
20624;BME280;10471;42.736;23.346;2022-10-22T08:50:47;96334.09;;;13.01;100.00
20624;BME280;10471;42.736;23.346;2022-10-22T08:53:20;96337.25;;;13.17;100.00
20624;BME280;10471;42.736;23.346;2022-10-22T08:55:48;96331.41;;;13.15;100.00
20624;BME280;10471;42.736;23.346;2022-10-22T09:01:22;96334.84;;;13.26;100.00
20624;BME280;10471;42.736;23.346;2022-10-22T09:06:28;96324.47;;;13.49;100.00
20624;BME280;10471;42.736;23.346;2022-10-22T09:08:56;96331.28;;;13.70;100.00
20624;BME280;10471;42.736;23.346;2022-10-22T09:13:48;96329.59;;;13.94;100.00
20624;BME280;10471;42.736;23.346;2022-10-22T09:16:41;96323.97;;;14.05;100.00
20624;BME280;10471;42.736;23.346;2022-10-22T09:19:22;96319.22;;;14.02;100.00
20624;BME280;10471;42.736;23.346;2022-10-22T09:24:39;96308.38;;;13.99;100.00
20624;BME280;10471;42.736;23.346;2022-10-22T09:27:18;96305.44;;;14.10;100.00
20624;BME280;10471;42.736;23.346;2022-10-22T09:29:46;96306.19;;;14.16;100.00
20624;BME280;10471;42.736;23.346;2022-10-22T09:32:13;96312.81;;;14.18;99.38
20624;BME280;10471;42.736;23.346;2022-10-22T09:34:38;96307.81;;;14.07;99.76
20624;BME280;10471;42.736;23.346;2022-10-22T09:37:07;96291.34;;;14.15;100.00
20624;BME280;10471;42.736;23.346;2022-10-22T09:39:34;96287.00;;;14.29;100.00
20624;BME280;10471;42.736;23.346;2022-10-22T09:42:01;96284.75;;;14.50;100.00
20624;BME280;10471;42.736;23.346;2022-10-22T09:44:26;96286.16;;;14.71;97.72
20624;BME280;10471;42.736;23.346;2022-10-22T09:46:52;96277.00;;;14.87;97.44
20624;BME280;10471;42.736;23.346;2022-10-22T09:49:20;96286.47;;;14.98;94.53
20624;BME280;10471;42.736;23.346;2022-10-22T09:51:55;96289.56;;;15.10;94.83
20624;BME280;10471;42.736;23.346;2022-10-22T09:57:05;96286.03;;;15.43;91.97
20624;BME280;10471;42.736;23.346;2022-10-22T09:59:38;96273.22;;;15.50;92.36
20624;BME280;10471;42.736;23.346;2022-10-22T10:02:11;96258.38;;;15.67;90.46
20624;BME280;10471;42.736;23.346;2022-10-22T10:04:45;96253.97;;;15.81;87.95
20624;BME280;10471;42.736;23.346;2022-10-22T10:07:26;96258.72;;;16.02;87.58
20624;BME280;10471;42.736;23.346;2022-10-22T10:09:52;96262.84;;;16.13;84.18
20624;BME280;10471;42.736;23.346;2022-10-22T10:20:02;96236.56;;;16.30;79.34
20624;BME280;10471;42.736;23.346;2022-10-22T10:25:45;96218.75;;;16.44;80.14
20624;BME280;10471;42.736;23.346;2022-10-22T10:28:31;96227.09;;;16.56;77.39
20624;BME280;10471;42.736;23.346;2022-10-22T10:36:26;96211.03;;;16.93;73.48
20624;BME280;10471;42.736;23.346;2022-10-22T10:39:05;96209.56;;;17.00;73.44
20624;BME280;10471;42.736;23.346;2022-10-22T10:48:06;96200.50;;;17.41;70.81
20624;BME280;10471;42.736;23.346;2022-10-22T10:59:13;96170.94;;;18.13;65.20
20624;BME280;10471;42.736;23.346;2022-10-22T11:02:09;96164.78;;;18.26;64.88
20624;BME280;10471;42.736;23.346;2022-10-22T11:07:30;96155.16;;;18.03;59.57
20624;BME280;10471;42.736;23.346;2022-10-22T11:12:41;96136.44;;;18.39;64.31
20624;BME280;10471;42.736;23.346;2022-10-22T11:15:33;96138.13;;;18.56;60.41
20624;BME280;10471;42.736;23.346;2022-10-22T11:23:13;96115.88;;;18.69;60.20
20624;BME280;10471;42.736;23.346;2022-10-22T11:25:44;96106.50;;;18.80;60.82
20624;BME280;10471;42.736;23.346;2022-10-22T11:28:46;96112.53;;;18.94;59.29
20624;BME280;10471;42.736;23.346;2022-10-22T11:31:15;96111.06;;;19.10;56.81
20624;BME280;10471;42.736;23.346;2022-10-22T11:34:13;96104.59;;;19.11;55.63
20624;BME280;10471;42.736;23.346;2022-10-22T11:36:41;96093.94;;;19.19;55.96
20624;BME280;10471;42.736;23.346;2022-10-22T11:39:27;96089.41;;;19.37;56.43
20624;BME280;10471;42.736;23.346;2022-10-22T11:41:53;96090.06;;;19.51;55.56
20624;BME280;10471;42.736;23.346;2022-10-22T11:44:22;96081.44;;;19.71;55.57
20624;BME280;10471;42.736;23.346;2022-10-22T11:49:29;96083.19;;;20.00;53.31
20624;BME280;10471;42.736;23.346;2022-10-22T11:55:00;96079.38;;;19.76;51.68
20624;BME280;10471;42.736;23.346;2022-10-22T11:57:36;96074.69;;;19.98;52.54
20624;BME280;10471;42.736;23.346;2022-10-22T12:00:10;96069.13;;;20.20;52.66
20624;BME280;10471;42.736;23.346;2022-10-22T12:03:02;96072.88;;;20.44;51.25
20624;BME280;10471;42.736;23.346;2022-10-22T12:08:01;96067.13;;;20.71;51.12
20624;BME280;10471;42.736;23.346;2022-10-22T12:10:35;96055.00;;;20.74;50.25
20624;BME280;10471;42.736;23.346;2022-10-22T12:13:23;96058.13;;;20.84;49.49
20624;BME280;10471;42.736;23.346;2022-10-22T12:15:53;96049.28;;;20.84;49.15
20624;BME280;10471;42.736;23.346;2022-10-22T12:18:22;96052.66;;;21.01;49.65
20624;BME280;10471;42.736;23.346;2022-10-22T12:20:51;96053.28;;;21.07;48.28
20624;BME280;10471;42.736;23.346;2022-10-22T12:23:17;96052.34;;;21.03;49.45
20624;BME280;10471;42.736;23.346;2022-10-22T12:25:42;96050.03;;;21.21;50.36
20624;BME280;10471;42.736;23.346;2022-10-22T12:28:11;96033.41;;;21.28;49.22
20624;BME280;10471;42.736;23.346;2022-10-22T12:30:37;96037.63;;;21.37;48.38
20624;BME280;10471;42.736;23.346;2022-10-22T12:33:05;96045.25;;;21.56;47.38
20624;BME280;10471;42.736;23.346;2022-10-22T12:35:33;96039.88;;;21.76;47.34
20624;BME280;10471;42.736;23.346;2022-10-22T12:38:01;96030.44;;;21.90;46.10
20624;BME280;10471;42.736;23.346;2022-10-22T12:40:28;96022.16;;;21.95;45.60
20624;BME280;10471;42.736;23.346;2022-10-22T12:42:56;96018.09;;;22.10;45.81
20624;BME280;10471;42.736;23.346;2022-10-22T12:45:25;96018.72;;;22.27;46.29
20624;BME280;10471;42.736;23.346;2022-10-22T12:47:55;96015.06;;;22.32;47.09
20624;BME280;10471;42.736;23.346;2022-10-22T12:50:34;96011.00;;;22.38;46.30
20624;BME280;10471;42.736;23.346;2022-10-22T12:53:05;96004.66;;;22.42;45.30
20624;BME280;10471;42.736;23.346;2022-10-22T12:55:32;96005.91;;;22.56;45.98
20624;BME280;10471;42.736;23.346;2022-10-22T12:57:58;96002.97;;;22.49;45.53
20624;BME280;10471;42.736;23.346;2022-10-22T13:00:26;96001.88;;;22.62;44.14
20624;BME280;10471;42.736;23.346;2022-10-22T13:02:53;96002.19;;;22.61;43.43
20624;BME280;10471;42.736;23.346;2022-10-22T13:07:48;95996.28;;;22.67;44.71
20624;BME280;10471;42.736;23.346;2022-10-22T13:10:32;96002.56;;;22.71;45.09
20624;BME280;10471;42.736;23.346;2022-10-22T13:12:58;95997.41;;;22.66;45.09
20624;BME280;10471;42.736;23.346;2022-10-22T13:18:22;95995.38;;;22.63;44.81
20624;BME280;10471;42.736;23.346;2022-10-22T13:20:54;95982.84;;;22.67;45.87
20624;BME280;10471;42.736;23.346;2022-10-22T13:23:23;95989.22;;;22.63;44.85
20624;BME280;10471;42.736;23.346;2022-10-22T13:26:00;95981.81;;;22.72;45.56
20624;BME280;10471;42.736;23.346;2022-10-22T13:28:28;95982.63;;;22.72;45.48
20624;BME280;10471;42.736;23.346;2022-10-22T13:31:07;95990.25;;;22.82;45.74
20624;BME280;10471;42.736;23.346;2022-10-22T13:33:36;95980.03;;;22.88;44.44
20624;BME280;10471;42.736;23.346;2022-10-22T13:36:03;95975.00;;;22.98;44.20
20624;BME280;10471;42.736;23.346;2022-10-22T13:38:29;95982.16;;;22.82;44.79
20624;BME280;10471;42.736;23.346;2022-10-22T13:40:55;95976.56;;;22.75;44.22
20624;BME280;10471;42.736;23.346;2022-10-22T13:43:21;95978.81;;;22.73;44.66
20624;BME280;10471;42.736;23.346;2022-10-22T13:45:58;95973.09;;;22.63;44.56
20624;BME280;10471;42.736;23.346;2022-10-22T13:48:25;95967.91;;;22.46;45.17
20624;BME280;10471;42.736;23.346;2022-10-22T13:50:52;95970.28;;;22.47;44.74
20624;BME280;10471;42.736;23.346;2022-10-22T13:53:21;95975.56;;;22.44;44.58
20624;BME280;10471;42.736;23.346;2022-10-22T13:55:48;95979.84;;;22.25;45.67
20624;BME280;10471;42.736;23.346;2022-10-22T13:58:19;95976.03;;;22.14;46.06
20624;BME280;10471;42.736;23.346;2022-10-22T14:00:51;95972.81;;;21.88;45.64
20624;BME280;10471;42.736;23.346;2022-10-22T14:03:20;95981.75;;;21.80;45.78
20624;BME280;10471;42.736;23.346;2022-10-22T14:05:48;95966.97;;;21.74;46.89
20624;BME280;10471;42.736;23.346;2022-10-22T14:08:18;95961.34;;;21.67;46.26
20624;BME280;10471;42.736;23.346;2022-10-22T14:10:44;95965.25;;;21.49;47.86
20624;BME280;10471;42.736;23.346;2022-10-22T14:13:11;95962.66;;;21.41;48.42
20624;BME280;10471;42.736;23.346;2022-10-22T14:15:37;95964.59;;;21.32;49.13
20624;BME280;10471;42.736;23.346;2022-10-22T14:18:05;95965.00;;;21.22;49.76
20624;BME280;10471;42.736;23.346;2022-10-22T14:20:34;95965.03;;;21.13;49.83
20624;BME280;10471;42.736;23.346;2022-10-22T14:23:06;95962.56;;;21.08;50.29
20624;BME280;10471;42.736;23.346;2022-10-22T14:25:35;95962.75;;;21.04;50.18
20624;BME280;10471;42.736;23.346;2022-10-22T14:28:01;95952.22;;;20.99;50.02
20624;BME280;10471;42.736;23.346;2022-10-22T14:30:26;95957.59;;;20.99;49.98